Portada
METAR-TAF:

METAR-TAF

Aeropuertos :

Chlef, Argelia

latitud: 36-13N, longitud: 001-20E, altitud: 143 m

Observación

El informe se hizo hace 4 horas y 17 minutos, a las 12:00 UTC
Viento 10 kt del oeste-suroeste
Temperatura 27°C
Humedad 34%
Presión 1018 hPa
Visibilidad 10 km o más
Nubes dispersas a una altura de 3000 ft

METAR: DAOI 201200Z 24010KT 9999 SCT030 27/10 Q1018

Hora: 17:17 (16:17 UTC)

Pronóstico

El informe se hizo hace 5 horas y 17 minutos, a las 11:00 UTC
Pronóstico válido del 20 a las 12 UTC al 21 a las 12 UTC
Viento 10 kt del oeste-suroeste
Visibilidad 10 km o más
Escasas nubes a una altura de 3000 ft
Evolucionando progresivamente
del 20 a las 17 UTC al 20 a las 19 UTC
Viento 2 kt con dirección variable
Evolucionando progresivamente
del 21 a las 08 UTC al 21 a las 11 UTC
Viento 10 kt del oeste-noroeste

TAF: DAOI 201100Z 2012/2112 24010KT 9999 FEW030 BECMG 2017/2019 VRB02KT BECMG 2108/2111 30010KT

Observaciones y pronósticos meteorológicos de más de 4000 aeropuertos (mensajes METAR y TAF).

Los puntos amarillos y rojos representan las estaciones disponibles.

Ponga el ratón en el punto deseado para ver el nombre de la estación.

Haga clic para ver las observaciones y los pronósticos meteorológicos.

Para cambiar el mapa : haga clic en los botones verdes con una cruz de color negro para hacer un zoom, en el botón verde con un guión para alejar o en las flechas verdes para mapas adyacentes.


METAR-TAF: